sensor_id;sensor_type;location;lat;lon;timestamp;P1;durP1;ratioP1;P2;durP2;ratioP2
13807;SDS011;40769;51.512;5.494;2022-08-21T00:01:43;1.42;;;1.27;;
13807;SDS011;40769;51.512;5.494;2022-08-21T00:04:09;1.85;;;1.40;;
13807;SDS011;40769;51.512;5.494;2022-08-21T00:06:36;1.17;;;1.10;;
13807;SDS011;40769;51.512;5.494;2022-08-21T00:09:03;1.33;;;1.23;;
13807;SDS011;40769;51.512;5.494;2022-08-21T00:11:30;1.30;;;1.20;;
13807;SDS011;40769;51.512;5.494;2022-08-21T00:13:56;1.42;;;1.33;;
13807;SDS011;40769;51.512;5.494;2022-08-21T00:16:21;1.40;;;1.30;;
13807;SDS011;40769;51.512;5.494;2022-08-21T00:18:47;1.20;;;1.10;;
13807;SDS011;40769;51.512;5.494;2022-08-21T00:21:14;1.17;;;1.13;;
13807;SDS011;40769;51.512;5.494;2022-08-21T00:23:40;1.10;;;1.00;;
13807;SDS011;40769;51.512;5.494;2022-08-21T00:26:06;1.15;;;1.05;;
13807;SDS011;40769;51.512;5.494;2022-08-21T00:28:32;1.30;;;1.20;;
13807;SDS011;40769;51.512;5.494;2022-08-21T00:30:58;1.50;;;1.40;;
13807;SDS011;40769;51.512;5.494;2022-08-21T00:33:24;1.17;;;1.08;;
13807;SDS011;40769;51.512;5.494;2022-08-21T00:35:50;0.95;;;0.95;;
13807;SDS011;40769;51.512;5.494;2022-08-21T00:38:16;1.00;;;1.00;;
13807;SDS011;40769;51.512;5.494;2022-08-21T00:40:49;1.15;;;1.05;;
13807;SDS011;40769;51.512;5.494;2022-08-21T00:43:19;0.80;;;0.80;;
13807;SDS011;40769;51.512;5.494;2022-08-21T00:45:47;0.90;;;0.90;;
13807;SDS011;40769;51.512;5.494;2022-08-21T00:48:13;0.90;;;0.90;;
13807;SDS011;40769;51.512;5.494;2022-08-21T00:50:40;1.40;;;1.30;;
13807;SDS011;40769;51.512;5.494;2022-08-21T00:53:11;1.15;;;1.00;;
13807;SDS011;40769;51.512;5.494;2022-08-21T00:55:38;0.80;;;0.80;;
13807;SDS011;40769;51.512;5.494;2022-08-21T00:58:05;0.80;;;0.80;;
13807;SDS011;40769;51.512;5.494;2022-08-21T01:00:34;1.50;;;1.10;;
13807;SDS011;40769;51.512;5.494;2022-08-21T01:03:05;1.15;;;0.95;;
13807;SDS011;40769;51.512;5.494;2022-08-21T01:05:34;1.05;;;1.00;;
13807;SDS011;40769;51.512;5.494;2022-08-21T01:08:01;1.38;;;1.17;;
13807;SDS011;40769;51.512;5.494;2022-08-21T01:10:26;1.30;;;1.20;;
13807;SDS011;40769;51.512;5.494;2022-08-21T01:12:53;1.13;;;1.02;;
13807;SDS011;40769;51.512;5.494;2022-08-21T01:15:20;1.50;;;1.10;;
13807;SDS011;40769;51.512;5.494;2022-08-21T01:17:49;1.48;;;1.38;;
13807;SDS011;40769;51.512;5.494;2022-08-21T01:20:16;1.20;;;1.10;;
13807;SDS011;40769;51.512;5.494;2022-08-21T01:22:42;1.10;;;0.85;;
13807;SDS011;40769;51.512;5.494;2022-08-21T01:25:08;1.77;;;1.20;;
13807;SDS011;40769;51.512;5.494;2022-08-21T01:27:35;1.33;;;1.23;;
13807;SDS011;40769;51.512;5.494;2022-08-21T01:30:06;1.27;;;1.17;;
13807;SDS011;40769;51.512;5.494;2022-08-21T01:32:38;1.30;;;1.20;;
13807;SDS011;40769;51.512;5.494;2022-08-21T01:35:04;2.17;;;1.10;;
13807;SDS011;40769;51.512;5.494;2022-08-21T01:37:30;1.02;;;0.93;;
13807;SDS011;40769;51.512;5.494;2022-08-21T01:39:55;0.98;;;0.90;;
13807;SDS011;40769;51.512;5.494;2022-08-21T01:42:21;1.05;;;1.05;;
13807;SDS011;40769;51.512;5.494;2022-08-21T01:44:47;1.20;;;1.10;;
13807;SDS011;40769;51.512;5.494;2022-08-21T01:47:13;1.30;;;1.20;;
13807;SDS011;40769;51.512;5.494;2022-08-21T01:49:40;1.40;;;1.30;;
13807;SDS011;40769;51.512;5.494;2022-08-21T01:52:07;1.50;;;1.40;;
13807;SDS011;40769;51.512;5.494;2022-08-21T01:54:32;1.15;;;1.10;;
13807;SDS011;40769;51.512;5.494;2022-08-21T01:56:58;1.40;;;1.30;;
13807;SDS011;40769;51.512;5.494;2022-08-21T01:59:26;1.23;;;1.13;;
13807;SDS011;40769;51.512;5.494;2022-08-21T02:01:52;1.30;;;1.20;;
13807;SDS011;40769;51.512;5.494;2022-08-21T02:04:19;1.50;;;1.40;;
13807;SDS011;40769;51.512;5.494;2022-08-21T02:06:45;1.95;;;1.50;;
13807;SDS011;40769;51.512;5.494;2022-08-21T02:09:12;1.50;;;1.35;;
13807;SDS011;40769;51.512;5.494;2022-08-21T02:11:39;1.35;;;1.25;;
13807;SDS011;40769;51.512;5.494;2022-08-21T02:14:06;1.73;;;1.50;;
13807;SDS011;40769;51.512;5.494;2022-08-21T02:16:36;1.70;;;1.50;;
13807;SDS011;40769;51.512;5.494;2022-08-21T02:19:03;1.60;;;1.50;;
13807;SDS011;40769;51.512;5.494;2022-08-21T02:21:29;1.63;;;1.40;;
13807;SDS011;40769;51.512;5.494;2022-08-21T02:23:55;1.77;;;1.67;;
13807;SDS011;40769;51.512;5.494;2022-08-21T02:26:20;1.38;;;1.27;;
13807;SDS011;40769;51.512;5.494;2022-08-21T02:28:46;1.67;;;1.58;;
13807;SDS011;40769;51.512;5.494;2022-08-21T02:31:12;1.88;;;1.73;;
13807;SDS011;40769;51.512;5.494;2022-08-21T02:33:39;2.00;;;1.90;;
13807;SDS011;40769;51.512;5.494;2022-08-21T02:36:06;1.60;;;1.50;;
13807;SDS011;40769;51.512;5.494;2022-08-21T02:38:33;1.67;;;1.58;;
13807;SDS011;40769;51.512;5.494;2022-08-21T02:41:03;1.77;;;1.63;;
13807;SDS011;40769;51.512;5.494;2022-08-21T02:43:30;1.70;;;1.60;;
13807;SDS011;40769;51.512;5.494;2022-08-21T02:45:56;1.92;;;1.83;;
13807;SDS011;40769;51.512;5.494;2022-08-21T02:48:24;1.63;;;1.52;;
13807;SDS011;40769;51.512;5.494;2022-08-21T02:50:57;1.73;;;1.63;;
13807;SDS011;40769;51.512;5.494;2022-08-21T02:53:34;1.63;;;1.52;;
13807;SDS011;40769;51.512;5.494;2022-08-21T02:56:02;1.42;;;1.33;;
13807;SDS011;40769;51.512;5.494;2022-08-21T02:58:31;1.73;;;1.60;;
13807;SDS011;40769;51.512;5.494;2022-08-21T03:00:59;1.60;;;1.50;;
13807;SDS011;40769;51.512;5.494;2022-08-21T03:03:25;2.20;;;1.45;;
13807;SDS011;40769;51.512;5.494;2022-08-21T03:05:52;1.48;;;1.38;;
13807;SDS011;40769;51.512;5.494;2022-08-21T03:08:18;1.40;;;1.30;;
13807;SDS011;40769;51.512;5.494;2022-08-21T03:10:47;1.60;;;1.50;;
13807;SDS011;40769;51.512;5.494;2022-08-21T03:13:14;1.70;;;1.60;;
13807;SDS011;40769;51.512;5.494;2022-08-21T03:15:41;2.13;;;1.20;;
13807;SDS011;40769;51.512;5.494;2022-08-21T03:18:08;2.00;;;1.80;;
13807;SDS011;40769;51.512;5.494;2022-08-21T03:20:35;2.30;;;2.10;;
13807;SDS011;40769;51.512;5.494;2022-08-21T03:23:02;4.20;;;3.05;;
13807;SDS011;40769;51.512;5.494;2022-08-21T03:25:30;3.83;;;3.53;;
13807;SDS011;40769;51.512;5.494;2022-08-21T03:27:59;5.55;;;4.90;;
13807;SDS011;40769;51.512;5.494;2022-08-21T03:30:28;4.63;;;4.22;;
13807;SDS011;40769;51.512;5.494;2022-08-21T03:32:56;4.47;;;4.18;;
13807;SDS011;40769;51.512;5.494;2022-08-21T03:35:23;4.25;;;3.85;;
13807;SDS011;40769;51.512;5.494;2022-08-21T03:37:49;5.65;;;5.00;;
13807;SDS011;40769;51.512;5.494;2022-08-21T03:40:16;5.10;;;4.70;;
13807;SDS011;40769;51.512;5.494;2022-08-21T03:42:44;4.65;;;4.25;;
13807;SDS011;40769;51.512;5.494;2022-08-21T03:45:12;4.72;;;4.32;;
13807;SDS011;40769;51.512;5.494;2022-08-21T03:47:38;4.43;;;4.13;;
13807;SDS011;40769;51.512;5.494;2022-08-21T03:50:03;4.45;;;4.05;;
13807;SDS011;40769;51.512;5.494;2022-08-21T03:52:30;5.30;;;4.80;;
13807;SDS011;40769;51.512;5.494;2022-08-21T03:54:56;4.10;;;3.80;;
13807;SDS011;40769;51.512;5.494;2022-08-21T03:57:21;4.90;;;4.43;;
13807;SDS011;40769;51.512;5.494;2022-08-21T03:59:47;5.20;;;4.70;;
13807;SDS011;40769;51.512;5.494;2022-08-21T04:02:12;6.35;;;5.80;;
13807;SDS011;40769;51.512;5.494;2022-08-21T04:04:42;4.88;;;4.30;;
13807;SDS011;40769;51.512;5.494;2022-08-21T04:07:08;3.30;;;3.00;;
13807;SDS011;40769;51.512;5.494;2022-08-21T04:09:33;4.13;;;3.78;;
13807;SDS011;40769;51.512;5.494;2022-08-21T04:11:59;3.22;;;2.90;;
13807;SDS011;40769;51.512;5.494;2022-08-21T04:14:25;3.90;;;3.60;;
13807;SDS011;40769;51.512;5.494;2022-08-21T04:16:51;5.28;;;3.72;;
13807;SDS011;40769;51.512;5.494;2022-08-21T04:19:16;3.90;;;3.60;;
13807;SDS011;40769;51.512;5.494;2022-08-21T04:21:42;4.20;;;3.80;;
13807;SDS011;40769;51.512;5.494;2022-08-21T04:24:09;3.47;;;3.17;;
13807;SDS011;40769;51.512;5.494;2022-08-21T04:26:35;5.10;;;4.70;;
13807;SDS011;40769;51.512;5.494;2022-08-21T04:29:02;4.75;;;3.88;;
13807;SDS011;40769;51.512;5.494;2022-08-21T04:31:28;5.30;;;4.80;;
13807;SDS011;40769;51.512;5.494;2022-08-21T04:33:54;4.60;;;4.20;;
13807;SDS011;40769;51.512;5.494;2022-08-21T04:36:21;4.13;;;3.45;;
13807;SDS011;40769;51.512;5.494;2022-08-21T04:38:47;4.10;;;3.80;;
13807;SDS011;40769;51.512;5.494;2022-08-21T04:41:13;5.13;;;4.63;;
13807;SDS011;40769;51.512;5.494;2022-08-21T04:43:39;5.93;;;4.30;;
13807;SDS011;40769;51.512;5.494;2022-08-21T04:46:05;4.10;;;3.70;;
13807;SDS011;40769;51.512;5.494;2022-08-21T04:48:30;3.25;;;2.95;;
13807;SDS011;40769;51.512;5.494;2022-08-21T04:53:43;4.63;;;4.22;;
13807;SDS011;40769;51.512;5.494;2022-08-21T04:56:19;5.07;;;3.92;;
13807;SDS011;40769;51.512;5.494;2022-08-21T04:58:48;5.20;;;3.63;;
13807;SDS011;40769;51.512;5.494;2022-08-21T05:01:17;3.90;;;3.50;;
13807;SDS011;40769;51.512;5.494;2022-08-21T05:03:45;5.10;;;3.65;;
13807;SDS011;40769;51.512;5.494;2022-08-21T05:06:14;3.65;;;3.35;;
13807;SDS011;40769;51.512;5.494;2022-08-21T05:08:41;3.67;;;3.13;;
13807;SDS011;40769;51.512;5.494;2022-08-21T05:11:10;3.83;;;3.40;;
13807;SDS011;40769;51.512;5.494;2022-08-21T05:13:36;4.10;;;3.70;;
13807;SDS011;40769;51.512;5.494;2022-08-21T05:16:02;4.95;;;4.15;;
13807;SDS011;40769;51.512;5.494;2022-08-21T05:18:28;4.68;;;4.28;;
13807;SDS011;40769;51.512;5.494;2022-08-21T05:20:53;4.15;;;3.28;;
13807;SDS011;40769;51.512;5.494;2022-08-21T05:23:19;6.20;;;4.32;;
13807;SDS011;40769;51.512;5.494;2022-08-21T05:25:45;3.65;;;3.33;;
13807;SDS011;40769;51.512;5.494;2022-08-21T05:28:10;3.20;;;2.90;;
13807;SDS011;40769;51.512;5.494;2022-08-21T05:30:37;5.00;;;3.60;;
13807;SDS011;40769;51.512;5.494;2022-08-21T05:33:04;3.83;;;2.75;;
13807;SDS011;40769;51.512;5.494;2022-08-21T05:35:32;2.55;;;2.35;;
13807;SDS011;40769;51.512;5.494;2022-08-21T05:37:59;3.42;;;2.92;;
13807;SDS011;40769;51.512;5.494;2022-08-21T05:40:25;5.30;;;2.95;;
13807;SDS011;40769;51.512;5.494;2022-08-21T05:42:51;3.10;;;2.80;;
13807;SDS011;40769;51.512;5.494;2022-08-21T05:45:19;4.70;;;3.00;;
13807;SDS011;40769;51.512;5.494;2022-08-21T05:47:46;2.70;;;2.50;;
13807;SDS011;40769;51.512;5.494;2022-08-21T05:50:11;3.42;;;2.97;;
13807;SDS011;40769;51.512;5.494;2022-08-21T05:52:37;4.28;;;3.00;;
13807;SDS011;40769;51.512;5.494;2022-08-21T05:55:03;4.63;;;2.90;;
13807;SDS011;40769;51.512;5.494;2022-08-21T05:57:29;4.85;;;2.92;;
13807;SDS011;40769;51.512;5.494;2022-08-21T05:59:55;2.53;;;2.22;;
13807;SDS011;40769;51.512;5.494;2022-08-21T06:02:20;3.92;;;2.30;;
13807;SDS011;40769;51.512;5.494;2022-08-21T06:04:46;4.40;;;2.25;;
13807;SDS011;40769;51.512;5.494;2022-08-21T06:07:12;3.72;;;2.50;;
13807;SDS011;40769;51.512;5.494;2022-08-21T06:09:37;2.63;;;2.17;;
13807;SDS011;40769;51.512;5.494;2022-08-21T06:12:04;4.15;;;2.20;;
13807;SDS011;40769;51.512;5.494;2022-08-21T06:14:31;4.40;;;2.30;;
13807;SDS011;40769;51.512;5.494;2022-08-21T06:17:03;4.10;;;2.38;;
13807;SDS011;40769;51.512;5.494;2022-08-21T06:19:29;2.40;;;1.88;;
13807;SDS011;40769;51.512;5.494;2022-08-21T06:21:55;2.75;;;2.28;;
13807;SDS011;40769;51.512;5.494;2022-08-21T06:24:21;3.38;;;2.20;;
13807;SDS011;40769;51.512;5.494;2022-08-21T06:26:46;3.60;;;2.90;;
13807;SDS011;40769;51.512;5.494;2022-08-21T06:29:12;3.88;;;2.63;;
13807;SDS011;40769;51.512;5.494;2022-08-21T06:31:41;2.83;;;2.58;;
13807;SDS011;40769;51.512;5.494;2022-08-21T06:34:07;3.20;;;2.17;;
13807;SDS011;40769;51.512;5.494;2022-08-21T06:36:33;4.07;;;2.70;;
13807;SDS011;40769;51.512;5.494;2022-08-21T06:38:58;3.78;;;2.40;;
13807;SDS011;40769;51.512;5.494;2022-08-21T06:41:24;4.68;;;2.95;;
13807;SDS011;40769;51.512;5.494;2022-08-21T06:43:50;3.25;;;2.47;;
13807;SDS011;40769;51.512;5.494;2022-08-21T06:46:16;2.83;;;2.17;;
13807;SDS011;40769;51.512;5.494;2022-08-21T06:48:42;3.67;;;2.70;;
13807;SDS011;40769;51.512;5.494;2022-08-21T06:51:07;4.72;;;3.00;;
13807;SDS011;40769;51.512;5.494;2022-08-21T06:53:33;4.18;;;2.70;;
13807;SDS011;40769;51.512;5.494;2022-08-21T06:55:59;2.92;;;2.55;;
13807;SDS011;40769;51.512;5.494;2022-08-21T06:58:25;2.47;;;2.28;;
13807;SDS011;40769;51.512;5.494;2022-08-21T07:00:50;4.68;;;3.00;;
13807;SDS011;40769;51.512;5.494;2022-08-21T07:03:20;4.05;;;2.22;;
13807;SDS011;40769;51.512;5.494;2022-08-21T07:05:53;4.78;;;3.00;;
13807;SDS011;40769;51.512;5.494;2022-08-21T07:08:20;4.55;;;2.65;;
13807;SDS011;40769;51.512;5.494;2022-08-21T07:10:46;5.25;;;3.13;;
13807;SDS011;40769;51.512;5.494;2022-08-21T07:13:13;3.85;;;3.10;;
13807;SDS011;40769;51.512;5.494;2022-08-21T07:15:39;3.83;;;2.95;;
13807;SDS011;40769;51.512;5.494;2022-08-21T07:18:04;3.55;;;2.80;;
13807;SDS011;40769;51.512;5.494;2022-08-21T07:20:31;3.53;;;2.78;;
13807;SDS011;40769;51.512;5.494;2022-08-21T07:22:58;4.25;;;3.10;;
13807;SDS011;40769;51.512;5.494;2022-08-21T07:25:27;3.20;;;2.78;;
13807;SDS011;40769;51.512;5.494;2022-08-21T07:27:53;4.15;;;3.10;;
13807;SDS011;40769;51.512;5.494;2022-08-21T07:30:18;6.38;;;3.30;;
13807;SDS011;40769;51.512;5.494;2022-08-21T07:32:46;3.78;;;2.30;;
13807;SDS011;40769;51.512;5.494;2022-08-21T07:35:14;2.47;;;1.80;;
13807;SDS011;40769;51.512;5.494;2022-08-21T07:37:40;3.15;;;2.30;;
13807;SDS011;40769;51.512;5.494;2022-08-21T07:40:05;3.47;;;2.15;;
13807;SDS011;40769;51.512;5.494;2022-08-21T07:42:32;4.65;;;2.55;;
13807;SDS011;40769;51.512;5.494;2022-08-21T07:44:57;5.35;;;3.67;;
13807;SDS011;40769;51.512;5.494;2022-08-21T07:47:23;4.05;;;3.00;;
13807;SDS011;40769;51.512;5.494;2022-08-21T07:49:48;4.47;;;3.22;;
13807;SDS011;40769;51.512;5.494;2022-08-21T07:52:14;5.30;;;3.40;;
13807;SDS011;40769;51.512;5.494;2022-08-21T07:54:40;4.82;;;3.03;;
13807;SDS011;40769;51.512;5.494;2022-08-21T07:57:05;4.75;;;2.92;;
13807;SDS011;40769;51.512;5.494;2022-08-21T07:59:31;4.97;;;2.88;;
13807;SDS011;40769;51.512;5.494;2022-08-21T08:01:56;3.20;;;2.25;;
13807;SDS011;40769;51.512;5.494;2022-08-21T08:04:22;2.40;;;1.80;;
13807;SDS011;40769;51.512;5.494;2022-08-21T08:06:48;5.40;;;2.72;;
13807;SDS011;40769;51.512;5.494;2022-08-21T08:09:13;4.10;;;2.90;;
13807;SDS011;40769;51.512;5.494;2022-08-21T08:11:40;6.40;;;5.40;;
13807;SDS011;40769;51.512;5.494;2022-08-21T08:14:07;4.80;;;3.25;;
13807;SDS011;40769;51.512;5.494;2022-08-21T08:16:33;4.68;;;2.53;;
13807;SDS011;40769;51.512;5.494;2022-08-21T08:18:59;6.30;;;2.95;;
13807;SDS011;40769;51.512;5.494;2022-08-21T08:21:24;4.95;;;2.85;;
13807;SDS011;40769;51.512;5.494;2022-08-21T08:23:50;4.22;;;2.63;;
13807;SDS011;40769;51.512;5.494;2022-08-21T08:26:15;2.45;;;1.98;;
13807;SDS011;40769;51.512;5.494;2022-08-21T08:28:41;4.78;;;2.90;;
13807;SDS011;40769;51.512;5.494;2022-08-21T08:31:07;3.53;;;2.47;;
13807;SDS011;40769;51.512;5.494;2022-08-21T08:33:32;2.15;;;1.95;;
13807;SDS011;40769;51.512;5.494;2022-08-21T08:35:58;4.45;;;2.40;;
13807;SDS011;40769;51.512;5.494;2022-08-21T08:38:24;2.53;;;1.80;;
13807;SDS011;40769;51.512;5.494;2022-08-21T08:43:34;2.97;;;2.00;;
13807;SDS011;40769;51.512;5.494;2022-08-21T08:46:02;2.17;;;1.98;;
13807;SDS011;40769;51.512;5.494;2022-08-21T08:48:37;3.42;;;1.92;;
13807;SDS011;40769;51.512;5.494;2022-08-21T08:51:18;2.65;;;1.73;;
13807;SDS011;40769;51.512;5.494;2022-08-21T08:54:09;4.07;;;2.03;;
13807;SDS011;40769;51.512;5.494;2022-08-21T08:56:38;3.58;;;2.00;;
13807;SDS011;40769;51.512;5.494;2022-08-21T09:02:08;3.28;;;1.92;;
13807;SDS011;40769;51.512;5.494;2022-08-21T09:04:36;3.13;;;1.88;;
13807;SDS011;40769;51.512;5.494;2022-08-21T09:12:33;3.97;;;2.40;;
13807;SDS011;40769;51.512;5.494;2022-08-21T09:25:58;2.78;;;1.60;;
13807;SDS011;40769;51.512;5.494;2022-08-21T09:28:35;2.67;;;1.40;;
13807;SDS011;40769;51.512;5.494;2022-08-21T09:31:08;2.67;;;1.63;;
13807;SDS011;40769;51.512;5.494;2022-08-21T09:33:40;2.63;;;1.60;;
13807;SDS011;40769;51.512;5.494;2022-08-21T09:36:06;3.78;;;1.80;;
13807;SDS011;40769;51.512;5.494;2022-08-21T09:38:33;3.05;;;1.48;;
13807;SDS011;40769;51.512;5.494;2022-08-21T09:41:05;3.13;;;1.30;;
13807;SDS011;40769;51.512;5.494;2022-08-21T09:43:34;2.55;;;1.40;;
13807;SDS011;40769;51.512;5.494;2022-08-21T09:46:20;2.38;;;1.23;;
13807;SDS011;40769;51.512;5.494;2022-08-21T09:48:49;2.30;;;1.70;;
13807;SDS011;40769;51.512;5.494;2022-08-21T09:51:18;2.55;;;1.40;;
13807;SDS011;40769;51.512;5.494;2022-08-21T09:53:55;1.60;;;1.27;;
13807;SDS011;40769;51.512;5.494;2022-08-21T09:56:27;2.38;;;1.50;;
13807;SDS011;40769;51.512;5.494;2022-08-21T09:59:27;2.65;;;1.50;;
13807;SDS011;40769;51.512;5.494;2022-08-21T10:01:55;2.45;;;1.67;;
13807;SDS011;40769;51.512;5.494;2022-08-21T10:04:23;4.82;;;1.92;;
13807;SDS011;40769;51.512;5.494;2022-08-21T10:06:53;2.05;;;1.27;;
13807;SDS011;40769;51.512;5.494;2022-08-21T10:09:19;2.70;;;1.52;;
13807;SDS011;40769;51.512;5.494;2022-08-21T10:11:51;2.50;;;1.40;;
13807;SDS011;40769;51.512;5.494;2022-08-21T10:17:36;1.25;;;1.10;;
13807;SDS011;40769;51.512;5.494;2022-08-21T10:20:11;2.28;;;1.50;;
13807;SDS011;40769;51.512;5.494;2022-08-21T10:23:07;2.33;;;1.40;;
13807;SDS011;40769;51.512;5.494;2022-08-21T10:25:31;2.50;;;1.45;;
13807;SDS011;40769;51.512;5.494;2022-08-21T10:28:07;2.45;;;1.40;;
13807;SDS011;40769;51.512;5.494;2022-08-21T10:30:50;2.15;;;1.20;;
13807;SDS011;40769;51.512;5.494;2022-08-21T10:46:11;2.90;;;1.30;;
13807;SDS011;40769;51.512;5.494;2022-08-21T10:48:47;2.30;;;1.50;;
13807;SDS011;40769;51.512;5.494;2022-08-21T10:51:41;1.60;;;1.10;;
13807;SDS011;40769;51.512;5.494;2022-08-21T10:57:11;3.83;;;1.95;;
13807;SDS011;40769;51.512;5.494;2022-08-21T10:59:55;1.80;;;1.50;;
13807;SDS011;40769;51.512;5.494;2022-08-21T11:02:28;2.65;;;2.13;;
13807;SDS011;40769;51.512;5.494;2022-08-21T11:05:02;2.92;;;1.73;;
13807;SDS011;40769;51.512;5.494;2022-08-21T11:07:31;1.80;;;1.52;;
13807;SDS011;40769;51.512;5.494;2022-08-21T11:09:58;2.22;;;1.52;;
13807;SDS011;40769;51.512;5.494;2022-08-21T11:12:50;1.65;;;1.40;;
13807;SDS011;40769;51.512;5.494;2022-08-21T11:15:24;3.05;;;1.10;;
13807;SDS011;40769;51.512;5.494;2022-08-21T11:20:51;2.28;;;1.55;;
13807;SDS011;40769;51.512;5.494;2022-08-21T11:23:47;1.73;;;1.60;;
13807;SDS011;40769;51.512;5.494;2022-08-21T11:27:21;1.60;;;1.50;;
13807;SDS011;40769;51.512;5.494;2022-08-21T11:29:22;2.22;;;1.40;;
13807;SDS011;40769;51.512;5.494;2022-08-21T11:32:03;2.45;;;1.40;;
13807;SDS011;40769;51.512;5.494;2022-08-21T11:43:40;3.92;;;1.92;;
13807;SDS011;40769;51.512;5.494;2022-08-21T11:48:57;2.10;;;1.33;;
13807;SDS011;40769;51.512;5.494;2022-08-21T11:51:48;1.73;;;1.60;;
13807;SDS011;40769;51.512;5.494;2022-08-21T11:54:29;1.85;;;1.30;;
13807;SDS011;40769;51.512;5.494;2022-08-21T11:57:02;1.30;;;1.08;;
13807;SDS011;40769;51.512;5.494;2022-08-21T12:02:19;2.05;;;1.67;;
13807;SDS011;40769;51.512;5.494;2022-08-21T12:04:53;2.42;;;1.60;;
13807;SDS011;40769;51.512;5.494;2022-08-21T12:10:15;2.03;;;1.35;;
13807;SDS011;40769;51.512;5.494;2022-08-21T12:12:47;1.70;;;1.30;;
13807;SDS011;40769;51.512;5.494;2022-08-21T12:18:04;1.42;;;1.13;;
13807;SDS011;40769;51.512;5.494;2022-08-21T12:23:34;1.00;;;0.90;;
13807;SDS011;40769;51.512;5.494;2022-08-21T12:26:17;2.53;;;1.33;;
13807;SDS011;40769;51.512;5.494;2022-08-21T12:28:49;1.40;;;1.30;;
13807;SDS011;40769;51.512;5.494;2022-08-21T12:31:20;1.60;;;1.33;;
13807;SDS011;40769;51.512;5.494;2022-08-21T12:33:50;1.98;;;1.30;;
13807;SDS011;40769;51.512;5.494;2022-08-21T12:36:27;2.17;;;1.30;;
13807;SDS011;40769;51.512;5.494;2022-08-21T12:39:11;1.70;;;1.40;;
13807;SDS011;40769;51.512;5.494;2022-08-21T12:41:45;2.42;;;1.45;;
13807;SDS011;40769;51.512;5.494;2022-08-21T12:44:15;2.08;;;1.88;;
13807;SDS011;40769;51.512;5.494;2022-08-21T12:46:46;2.03;;;1.60;;
13807;SDS011;40769;51.512;5.494;2022-08-21T12:49:25;2.42;;;1.75;;
13807;SDS011;40769;51.512;5.494;2022-08-21T12:52:09;2.05;;;1.60;;
13807;SDS011;40769;51.512;5.494;2022-08-21T12:54:42;2.85;;;1.55;;
13807;SDS011;40769;51.512;5.494;2022-08-21T12:57:17;2.58;;;1.63;;
13807;SDS011;40769;51.512;5.494;2022-08-21T12:59:53;1.88;;;1.65;;
13807;SDS011;40769;51.512;5.494;2022-08-21T13:02:22;2.25;;;1.75;;
13807;SDS011;40769;51.512;5.494;2022-08-21T13:04:51;2.42;;;1.70;;
13807;SDS011;40769;51.512;5.494;2022-08-21T13:07:28;2.88;;;1.83;;
13807;SDS011;40769;51.512;5.494;2022-08-21T13:10:04;2.85;;;1.50;;
13807;SDS011;40769;51.512;5.494;2022-08-21T13:12:32;1.73;;;1.30;;
13807;SDS011;40769;51.512;5.494;2022-08-21T13:15:01;2.55;;;1.38;;
13807;SDS011;40769;51.512;5.494;2022-08-21T13:17:31;2.55;;;1.70;;
13807;SDS011;40769;51.512;5.494;2022-08-21T13:20:02;1.95;;;1.70;;
13807;SDS011;40769;51.512;5.494;2022-08-21T13:22:39;1.95;;;1.75;;
13807;SDS011;40769;51.512;5.494;2022-08-21T13:25:09;2.92;;;1.95;;
13807;SDS011;40769;51.512;5.494;2022-08-21T13:27:40;3.53;;;1.70;;
13807;SDS011;40769;51.512;5.494;2022-08-21T13:30:08;2.28;;;1.80;;
13807;SDS011;40769;51.512;5.494;2022-08-21T13:32:39;4.65;;;1.77;;
13807;SDS011;40769;51.512;5.494;2022-08-21T13:35:15;3.05;;;1.63;;
13807;SDS011;40769;51.512;5.494;2022-08-21T13:37:47;3.17;;;1.52;;
13807;SDS011;40769;51.512;5.494;2022-08-21T13:40:25;1.58;;;1.10;;
13807;SDS011;40769;51.512;5.494;2022-08-21T13:42:53;2.60;;;1.65;;
13807;SDS011;40769;51.512;5.494;2022-08-21T13:45:25;2.78;;;1.40;;
13807;SDS011;40769;51.512;5.494;2022-08-21T13:47:56;3.17;;;1.40;;
13807;SDS011;40769;51.512;5.494;2022-08-21T13:50:24;3.30;;;1.52;;
13807;SDS011;40769;51.512;5.494;2022-08-21T13:52:58;2.33;;;1.63;;
13807;SDS011;40769;51.512;5.494;2022-08-21T13:55:40;2.17;;;1.38;;
13807;SDS011;40769;51.512;5.494;2022-08-21T13:58:07;4.70;;;1.83;;
13807;SDS011;40769;51.512;5.494;2022-08-21T14:00:37;2.80;;;1.67;;
13807;SDS011;40769;51.512;5.494;2022-08-21T14:03:10;2.55;;;1.50;;
13807;SDS011;40769;51.512;5.494;2022-08-21T14:05:43;3.03;;;1.77;;
13807;SDS011;40769;51.512;5.494;2022-08-21T14:08:12;2.15;;;1.50;;
13807;SDS011;40769;51.512;5.494;2022-08-21T14:10:44;2.47;;;1.55;;
13807;SDS011;40769;51.512;5.494;2022-08-21T14:16:03;1.77;;;1.30;;
13807;SDS011;40769;51.512;5.494;2022-08-21T14:19:11;3.15;;;1.60;;
13807;SDS011;40769;51.512;5.494;2022-08-21T14:21:32;2.53;;;1.52;;
13807;SDS011;40769;51.512;5.494;2022-08-21T14:24:42;3.80;;;1.95;;
13807;SDS011;40769;51.512;5.494;2022-08-21T14:26:52;4.40;;;1.83;;
13807;SDS011;40769;51.512;5.494;2022-08-21T14:29:26;3.47;;;2.03;;
13807;SDS011;40769;51.512;5.494;2022-08-21T14:31:54;4.28;;;2.13;;
13807;SDS011;40769;51.512;5.494;2022-08-21T14:34:22;3.35;;;1.80;;
13807;SDS011;40769;51.512;5.494;2022-08-21T14:36:50;4.40;;;2.08;;
13807;SDS011;40769;51.512;5.494;2022-08-21T14:39:16;3.70;;;1.88;;
13807;SDS011;40769;51.512;5.494;2022-08-21T14:41:42;3.70;;;1.58;;
13807;SDS011;40769;51.512;5.494;2022-08-21T14:44:08;3.40;;;1.55;;
13807;SDS011;40769;51.512;5.494;2022-08-21T14:46:35;1.92;;;1.52;;
13807;SDS011;40769;51.512;5.494;2022-08-21T14:49:02;3.85;;;1.80;;
13807;SDS011;40769;51.512;5.494;2022-08-21T14:51:29;3.25;;;1.50;;
13807;SDS011;40769;51.512;5.494;2022-08-21T14:53:54;3.17;;;1.50;;
13807;SDS011;40769;51.512;5.494;2022-08-21T14:56:20;4.32;;;1.70;;
13807;SDS011;40769;51.512;5.494;2022-08-21T14:58:47;2.10;;;1.40;;
13807;SDS011;40769;51.512;5.494;2022-08-21T15:01:17;2.85;;;1.30;;
13807;SDS011;40769;51.512;5.494;2022-08-21T15:03:45;1.83;;;1.40;;
13807;SDS011;40769;51.512;5.494;2022-08-21T15:06:13;2.13;;;1.30;;
13807;SDS011;40769;51.512;5.494;2022-08-21T15:08:39;2.03;;;1.20;;
13807;SDS011;40769;51.512;5.494;2022-08-21T15:11:05;3.83;;;1.70;;
13807;SDS011;40769;51.512;5.494;2022-08-21T15:13:32;4.72;;;1.70;;
13807;SDS011;40769;51.512;5.494;2022-08-21T15:15:58;1.83;;;1.10;;
13807;SDS011;40769;51.512;5.494;2022-08-21T15:18:25;1.92;;;1.48;;
13807;SDS011;40769;51.512;5.494;2022-08-21T15:20:52;2.70;;;1.73;;
13807;SDS011;40769;51.512;5.494;2022-08-21T15:23:18;2.97;;;1.38;;
13807;SDS011;40769;51.512;5.494;2022-08-21T15:25:45;2.83;;;1.80;;
13807;SDS011;40769;51.512;5.494;2022-08-21T15:28:13;2.60;;;1.65;;
13807;SDS011;40769;51.512;5.494;2022-08-21T15:30:40;5.03;;;3.55;;
13807;SDS011;40769;51.512;5.494;2022-08-21T15:33:06;5.35;;;3.80;;
13807;SDS011;40769;51.512;5.494;2022-08-21T15:35:33;4.40;;;2.80;;
13807;SDS011;40769;51.512;5.494;2022-08-21T15:37:59;3.10;;;2.30;;
13807;SDS011;40769;51.512;5.494;2022-08-21T15:40:25;4.57;;;3.97;;
13807;SDS011;40769;51.512;5.494;2022-08-21T15:42:52;3.88;;;3.25;;
13807;SDS011;40769;51.512;5.494;2022-08-21T15:45:22;4.05;;;2.28;;
13807;SDS011;40769;51.512;5.494;2022-08-21T15:47:48;2.70;;;1.98;;
13807;SDS011;40769;51.512;5.494;2022-08-21T15:50:14;3.75;;;2.00;;
13807;SDS011;40769;51.512;5.494;2022-08-21T15:52:40;3.03;;;1.38;;
13807;SDS011;40769;51.512;5.494;2022-08-21T15:55:06;1.83;;;1.10;;
13807;SDS011;40769;51.512;5.494;2022-08-21T15:57:33;3.13;;;1.83;;
13807;SDS011;40769;51.512;5.494;2022-08-21T16:00:03;1.42;;;1.00;;
13807;SDS011;40769;51.512;5.494;2022-08-21T16:02:36;1.08;;;0.93;;
13807;SDS011;40769;51.512;5.494;2022-08-21T16:05:03;2.92;;;1.80;;
13807;SDS011;40769;51.512;5.494;2022-08-21T16:07:29;3.67;;;1.83;;
13807;SDS011;40769;51.512;5.494;2022-08-21T16:09:54;3.67;;;1.50;;
13807;SDS011;40769;51.512;5.494;2022-08-21T16:12:28;2.28;;;1.38;;